Overview Statistics Trail Chart Weather Telemetry Raw packets
 

This is the latest recevied weather packets stored in our database for station/object KO4DYK. If no packets are shown the sender has not sent any weather packets the latest 10 day(s).

<< 4 5 6 7 8 9 10 >>
Time Temp. Humidity Pressure Rain* Wind** Luminosity Snow
1788626367 38.33° C 53% 1015.7 hPa 0 mm - 559 W/m² -
1788626063 38.33° C 52% 1015.7 hPa 0 mm - 540 W/m² -
1788625759 36.67° C 54% 1015.9 hPa 0 mm - 563 W/m² -
1788625455 35° C 58% 1016 hPa 0 mm - 561 W/m² -
1788625149 36.11° C 55% 1016 hPa 0 mm - 582 W/m² -
1788624849 36.67° C 54% 1016.1 hPa 0 mm - 610 W/m² -
1788624546 36.67° C 52% 1016.1 hPa 0 mm - 588 W/m² -
1788624241 36.11° C 54% 1016.1 hPa 0 mm - 551 W/m² -
1788623935 36.11° C 56% 1016.2 hPa 0 mm - 615 W/m² -
1788623634 35.56° C 58% 1016.2 hPa 0 mm - 602 W/m² -
1788623333 35.56° C 57% 1016.2 hPa 0 mm - 488 W/m² -
1788623029 35° C 58% 1016.2 hPa 0 mm - 433 W/m² -
1788622724 35° C 60% 1016.2 hPa 0 mm - 535 W/m² -
1788622439 35° C 60% 1016.3 hPa 0 mm - 479 W/m² -
1788622120 33.89° C 63% 1016.3 hPa 0 mm - 409 W/m² -
1788621819 34.44° C 63% 1016.3 hPa 0 mm - 419 W/m² -
1788621515 34.44° C 62% 1016.5 hPa 0 mm - 495 W/m² -
1788621211 33.89° C 65% 1016.4 hPa 0 mm - 500 W/m² -
1788620910 35.56° C 60% 1016.3 hPa 0 mm - 472 W/m² -
1788620605 34.44° C 62% 1016.3 hPa 0 mm - 411 W/m² -
1788620303 33.89° C 65% 1016.2 hPa 0 mm - 424 W/m² -
1788620002 33.33° C 71% 1016.4 hPa 0 mm - 389 W/m² -
1788619701 32.22° C 74% 1016.3 hPa 0 mm - 379 W/m² -
1788619397 31.67° C 77% 1016.4 hPa 0 mm - 382 W/m² -
1788619095 31.11° C 78% 1016.3 hPa 0 mm - 358 W/m² -

* Rain latest hour (hover to see other rain measurements)
** Current wind speed in m/s (hover to see current wind gust speed)